sensor_id;sensor_type;location;lat;lon;timestamp;pressure;altitude;pressure_sealevel;temperature;humidity
20889;BME280;10604;51.976;7.594;2023-03-03T00:02:01;101673.66;;;2.67;95.88
20889;BME280;10604;51.976;7.594;2023-03-03T00:04:26;101665.63;;;2.54;95.59
20889;BME280;10604;51.976;7.594;2023-03-03T00:06:52;101673.16;;;2.39;95.61
20889;BME280;10604;51.976;7.594;2023-03-03T00:09:17;101667.88;;;2.34;95.72
20889;BME280;10604;51.976;7.594;2023-03-03T00:11:55;101677.31;;;2.29;95.53
20889;BME280;10604;51.976;7.594;2023-03-03T00:14:31;101675.50;;;2.25;96.25
20889;BME280;10604;51.976;7.594;2023-03-03T00:17:00;101687.66;;;2.26;95.81
20889;BME280;10604;51.976;7.594;2023-03-03T00:19:25;101691.00;;;2.19;96.03
20889;BME280;10604;51.976;7.594;2023-03-03T00:21:51;101689.34;;;2.24;96.29
20889;BME280;10604;51.976;7.594;2023-03-03T00:24:36;101693.03;;;2.35;96.32
20889;BME280;10604;51.976;7.594;2023-03-03T00:27:16;101686.97;;;2.36;95.49
20889;BME280;10604;51.976;7.594;2023-03-03T00:29:45;101680.94;;;2.37;95.78
20889;BME280;10604;51.976;7.594;2023-03-03T00:34:47;101689.56;;;2.36;95.78
20889;BME280;10604;51.976;7.594;2023-03-03T00:37:26;101684.25;;;2.30;95.70
20889;BME280;10604;51.976;7.594;2023-03-03T00:39:53;101691.31;;;2.34;95.64
20889;BME280;10604;51.976;7.594;2023-03-03T00:42:18;101684.25;;;2.30;96.17
20889;BME280;10604;51.976;7.594;2023-03-03T00:44:51;101683.72;;;2.46;96.05
20889;BME280;10604;51.976;7.594;2023-03-03T00:47:36;101680.06;;;2.36;96.25
20889;BME280;10604;51.976;7.594;2023-03-03T00:52:36;101684.44;;;2.39;95.86
20889;BME280;10604;51.976;7.594;2023-03-03T00:55:02;101682.69;;;2.38;95.91
20889;BME280;10604;51.976;7.594;2023-03-03T00:57:28;101691.31;;;2.34;95.81
20889;BME280;10604;51.976;7.594;2023-03-03T00:59:54;101691.16;;;2.28;95.92
20889;BME280;10604;51.976;7.594;2023-03-03T01:02:20;101697.38;;;2.36;96.15
20889;BME280;10604;51.976;7.594;2023-03-03T01:04:49;101691.03;;;2.22;96.34
20889;BME280;10604;51.976;7.594;2023-03-03T01:07:15;101691.03;;;2.22;96.45
20889;BME280;10604;51.976;7.594;2023-03-03T01:09:41;101682.47;;;2.27;96.55
20889;BME280;10604;51.976;7.594;2023-03-03T01:12:07;101668.63;;;2.27;96.45
20889;BME280;10604;51.976;7.594;2023-03-03T01:14:32;101673.97;;;2.36;96.74
20889;BME280;10604;51.976;7.594;2023-03-03T01:16:58;101679.16;;;2.36;96.35
20889;BME280;10604;51.976;7.594;2023-03-03T01:19:24;101670.41;;;2.31;96.27
20889;BME280;10604;51.976;7.594;2023-03-03T01:21:49;101681.03;;;2.43;95.85
20889;BME280;10604;51.976;7.594;2023-03-03T01:24:15;101676.56;;;2.36;95.62
20889;BME280;10604;51.976;7.594;2023-03-03T01:26:40;101672.34;;;2.41;95.98
20889;BME280;10604;51.976;7.594;2023-03-03T01:29:06;101672.38;;;2.44;95.88
20889;BME280;10604;51.976;7.594;2023-03-03T01:31:31;101673.00;;;2.31;96.20
20889;BME280;10604;51.976;7.594;2023-03-03T01:33:57;101679.16;;;2.36;96.29
20889;BME280;10604;51.976;7.594;2023-03-03T01:36:27;101682.41;;;2.23;96.03
20889;BME280;10604;51.976;7.594;2023-03-03T01:38:52;101672.16;;;2.32;96.81
20889;BME280;10604;51.976;7.594;2023-03-03T01:41:18;101672.09;;;2.29;96.23
20889;BME280;10604;51.976;7.594;2023-03-03T01:43:46;101680.75;;;2.28;96.60
20889;BME280;10604;51.976;7.594;2023-03-03T01:46:32;101677.19;;;2.23;96.44
20889;BME280;10604;51.976;7.594;2023-03-03T01:49:05;101682.47;;;2.26;96.20
20889;BME280;10604;51.976;7.594;2023-03-03T01:51:38;101685.84;;;2.22;96.51
20889;BME280;10604;51.976;7.594;2023-03-03T01:54:15;101678.03;;;2.22;96.03
20889;BME280;10604;51.976;7.594;2023-03-03T01:56:42;101682.50;;;2.29;95.36
20889;BME280;10604;51.976;7.594;2023-03-03T01:59:16;101684.16;;;2.24;95.48
20889;BME280;10604;51.976;7.594;2023-03-03T02:01:42;101679.69;;;2.17;95.50
20889;BME280;10604;51.976;7.594;2023-03-03T02:04:08;101675.44;;;2.22;95.29
20889;BME280;10604;51.976;7.594;2023-03-03T02:06:40;101666.78;;;2.23;95.17
20889;BME280;10604;51.976;7.594;2023-03-03T02:09:17;101660.56;;;2.15;95.48
20889;BME280;10604;51.976;7.594;2023-03-03T02:11:49;101672.69;;;2.14;95.69
20889;BME280;10604;51.976;7.594;2023-03-03T02:14:17;101678.72;;;2.12;95.43
20889;BME280;10604;51.976;7.594;2023-03-03T02:16:43;101685.84;;;2.22;95.66
20889;BME280;10604;51.976;7.594;2023-03-03T02:19:34;101684.38;;;2.36;94.91
20889;BME280;10604;51.976;7.594;2023-03-03T02:22:01;101686.13;;;2.37;94.76
20889;BME280;10604;51.976;7.594;2023-03-03T02:24:37;101682.50;;;2.29;94.63
20889;BME280;10604;51.976;7.594;2023-03-03T02:27:04;101660.06;;;2.34;94.87
20889;BME280;10604;51.976;7.594;2023-03-03T02:29:30;101666.16;;;2.36;94.84
20889;BME280;10604;51.976;7.594;2023-03-03T02:31:55;101674.81;;;2.33;94.85
20889;BME280;10604;51.976;7.594;2023-03-03T02:34:21;101674.13;;;2.45;94.30
20889;BME280;10604;51.976;7.594;2023-03-03T02:36:46;101681.72;;;2.33;94.06
20889;BME280;10604;51.976;7.594;2023-03-03T02:39:16;101680.81;;;2.31;94.33
20889;BME280;10604;51.976;7.594;2023-03-03T02:44:33;101678.88;;;2.21;95.38
20889;BME280;10604;51.976;7.594;2023-03-03T02:46:59;101668.34;;;2.15;95.06
20889;BME280;10604;51.976;7.594;2023-03-03T02:49:27;101670.31;;;2.25;94.92
20889;BME280;10604;51.976;7.594;2023-03-03T02:51:53;101680.88;;;2.34;94.69
20889;BME280;10604;51.976;7.594;2023-03-03T02:54:20;101679.16;;;2.36;94.22
20889;BME280;10604;51.976;7.594;2023-03-03T02:56:46;101674.66;;;2.27;94.46
20889;BME280;10604;51.976;7.594;2023-03-03T02:59:12;101679.06;;;2.30;95.39
20889;BME280;10604;51.976;7.594;2023-03-03T03:01:38;101681.72;;;2.34;94.78
20889;BME280;10604;51.976;7.594;2023-03-03T03:04:06;101677.47;;;2.38;94.48
20889;BME280;10604;51.976;7.594;2023-03-03T03:06:32;101680.00;;;2.33;94.96
20889;BME280;10604;51.976;7.594;2023-03-03T03:08:58;101679.13;;;2.33;94.71
20889;BME280;10604;51.976;7.594;2023-03-03T03:11:25;101682.56;;;2.32;94.66
20889;BME280;10604;51.976;7.594;2023-03-03T03:13:50;101680.88;;;2.34;94.46
20889;BME280;10604;51.976;7.594;2023-03-03T03:16:16;101692.81;;;2.23;94.82
20889;BME280;10604;51.976;7.594;2023-03-03T03:18:41;101689.56;;;2.36;94.44
20889;BME280;10604;51.976;7.594;2023-03-03T03:21:09;101693.03;;;2.35;94.40
20889;BME280;10604;51.976;7.594;2023-03-03T03:23:35;101689.56;;;2.36;93.61
20889;BME280;10604;51.976;7.594;2023-03-03T03:26:01;101687.78;;;2.32;93.63
20889;BME280;10604;51.976;7.594;2023-03-03T03:28:27;101684.34;;;2.33;93.87
20889;BME280;10604;51.976;7.594;2023-03-03T03:30:52;101686.00;;;2.29;93.72
20889;BME280;10604;51.976;7.594;2023-03-03T03:33:18;101684.16;;;2.24;93.57
20889;BME280;10604;51.976;7.594;2023-03-03T03:35:43;101680.47;;;2.13;94.55
20889;BME280;10604;51.976;7.594;2023-03-03T03:38:12;101682.28;;;2.17;95.05
20889;BME280;10604;51.976;7.594;2023-03-03T03:40:37;101687.59;;;2.23;95.40
20889;BME280;10604;51.976;7.594;2023-03-03T03:43:03;101693.59;;;2.19;94.91
20889;BME280;10604;51.976;7.594;2023-03-03T03:45:28;101685.16;;;2.30;94.84
20889;BME280;10604;51.976;7.594;2023-03-03T03:47:54;101689.44;;;2.27;94.47
20889;BME280;10604;51.976;7.594;2023-03-03T03:50:19;101687.72;;;2.29;94.24
20889;BME280;10604;51.976;7.594;2023-03-03T03:52:44;101678.94;;;2.24;94.59
20889;BME280;10604;51.976;7.594;2023-03-03T03:55:10;101678.00;;;2.19;94.61
20889;BME280;10604;51.976;7.594;2023-03-03T03:57:35;101685.72;;;2.16;94.77
20889;BME280;10604;51.976;7.594;2023-03-03T04:00:01;101678.88;;;2.21;94.36
20889;BME280;10604;51.976;7.594;2023-03-03T04:02:26;101678.88;;;2.19;94.49
20889;BME280;10604;51.976;7.594;2023-03-03T04:04:51;101675.53;;;2.28;94.62
20889;BME280;10604;51.976;7.594;2023-03-03T04:07:17;101680.81;;;2.31;94.52
20889;BME280;10604;51.976;7.594;2023-03-03T04:09:42;101671.22;;;2.28;94.28
20889;BME280;10604;51.976;7.594;2023-03-03T04:12:07;101677.19;;;2.23;94.39
20889;BME280;10604;51.976;7.594;2023-03-03T04:14:33;101680.81;;;2.31;94.16
20889;BME280;10604;51.976;7.594;2023-03-03T04:16:58;101673.94;;;2.33;94.36
20889;BME280;10604;51.976;7.594;2023-03-03T04:19:24;101675.44;;;2.22;94.13
20889;BME280;10604;51.976;7.594;2023-03-03T04:21:50;101680.75;;;2.28;94.40
20889;BME280;10604;51.976;7.594;2023-03-03T04:24:16;101675.44;;;2.22;94.43
20889;BME280;10604;51.976;7.594;2023-03-03T04:26:43;101687.59;;;2.23;94.52
20889;BME280;10604;51.976;7.594;2023-03-03T04:29:08;101689.34;;;2.24;95.04
20889;BME280;10604;51.976;7.594;2023-03-03T04:31:34;101680.59;;;2.19;94.72
20889;BME280;10604;51.976;7.594;2023-03-03T04:33:59;101682.41;;;2.23;94.97
20889;BME280;10604;51.976;7.594;2023-03-03T04:36:24;101690.88;;;2.13;94.84
20889;BME280;10604;51.976;7.594;2023-03-03T04:38:50;101684.84;;;2.15;95.68
20889;BME280;10604;51.976;7.594;2023-03-03T04:41:16;101689.16;;;2.15;95.51
20889;BME280;10604;51.976;7.594;2023-03-03T04:43:41;101692.03;;;2.27;95.45
20889;BME280;10604;51.976;7.594;2023-03-03T04:46:07;101688.28;;;2.14;95.87
20889;BME280;10604;51.976;7.594;2023-03-03T04:48:32;101693.66;;;2.22;96.07
20889;BME280;10604;51.976;7.594;2023-03-03T04:50:58;101700.66;;;2.24;95.35
20889;BME280;10604;51.976;7.594;2023-03-03T04:53:23;101697.13;;;2.22;95.82
20889;BME280;10604;51.976;7.594;2023-03-03T04:55:50;101688.69;;;2.34;95.74
20889;BME280;10604;51.976;7.594;2023-03-03T04:58:16;101682.56;;;2.32;94.97
20889;BME280;10604;51.976;7.594;2023-03-03T05:00:44;101686.56;;;2.15;95.51
20889;BME280;10604;51.976;7.594;2023-03-03T05:03:11;101694.16;;;2.03;95.75
20889;BME280;10604;51.976;7.594;2023-03-03T05:05:37;101701.16;;;2.07;95.94
20889;BME280;10604;51.976;7.594;2023-03-03T05:08:02;101703.94;;;2.16;95.50
20889;BME280;10604;51.976;7.594;2023-03-03T05:10:27;101700.31;;;2.08;94.56
20889;BME280;10604;51.976;7.594;2023-03-03T05:12:54;101702.97;;;2.11;94.58
20889;BME280;10604;51.976;7.594;2023-03-03T05:15:19;101696.22;;;2.19;94.54
20889;BME280;10604;51.976;7.594;2023-03-03T05:17:45;101704.16;;;2.26;94.11
20889;BME280;10604;51.976;7.594;2023-03-03T05:20:11;101693.09;;;2.38;93.60
20889;BME280;10604;51.976;7.594;2023-03-03T05:22:37;101686.94;;;2.34;93.49
20889;BME280;10604;51.976;7.594;2023-03-03T05:25:02;101696.31;;;2.25;93.63
20889;BME280;10604;51.976;7.594;2023-03-03T05:27:28;101692.75;;;2.20;93.77
20889;BME280;10604;51.976;7.594;2023-03-03T05:29:53;101695.94;;;2.07;94.09
20889;BME280;10604;51.976;7.594;2023-03-03T05:32:19;101699.34;;;2.03;94.96
20889;BME280;10604;51.976;7.594;2023-03-03T05:34:44;101713.16;;;1.99;95.19
20889;BME280;10604;51.976;7.594;2023-03-03T05:37:09;101710.47;;;1.95;95.46
20889;BME280;10604;51.976;7.594;2023-03-03T05:39:35;101704.63;;;2.06;94.75
20889;BME280;10604;51.976;7.594;2023-03-03T05:42:01;101708.78;;;1.99;95.36
20889;BME280;10604;51.976;7.594;2023-03-03T05:44:27;101713.94;;;1.96;95.29
20889;BME280;10604;51.976;7.594;2023-03-03T05:46:52;101706.19;;;1.98;95.19
20889;BME280;10604;51.976;7.594;2023-03-03T05:49:17;101716.50;;;1.94;95.40
20889;BME280;10604;51.976;7.594;2023-03-03T05:51:43;101720.03;;;1.96;95.77
20889;BME280;10604;51.976;7.594;2023-03-03T05:54:08;101715.75;;;2.00;95.29
20889;BME280;10604;51.976;7.594;2023-03-03T05:56:34;101717.47;;;2.00;95.22
20889;BME280;10604;51.976;7.594;2023-03-03T05:58:59;101721.66;;;1.91;95.37
20889;BME280;10604;51.976;7.594;2023-03-03T06:01:25;101715.03;;;2.06;95.11
20889;BME280;10604;51.976;7.594;2023-03-03T06:03:51;101719.31;;;2.04;94.72
20889;BME280;10604;51.976;7.594;2023-03-03T06:06:16;101721.66;;;1.91;94.55
20889;BME280;10604;51.976;7.594;2023-03-03T06:08:43;101727.72;;;1.92;94.58
20889;BME280;10604;51.976;7.594;2023-03-03T06:11:08;101732.38;;;2.07;94.26
20889;BME280;10604;51.976;7.594;2023-03-03T06:13:34;101732.31;;;2.04;94.02
20889;BME280;10604;51.976;7.594;2023-03-03T06:16:00;101730.34;;;1.93;94.03
20889;BME280;10604;51.976;7.594;2023-03-03T06:18:25;101734.66;;;1.91;94.43
20889;BME280;10604;51.976;7.594;2023-03-03T06:20:52;101733.53;;;1.80;95.04
20889;BME280;10604;51.976;7.594;2023-03-03T06:23:18;101741.72;;;1.97;95.15
20889;BME280;10604;51.976;7.594;2023-03-03T06:25:43;101744.28;;;1.95;94.84
20889;BME280;10604;51.976;7.594;2023-03-03T06:28:08;101740.75;;;1.93;94.67
20889;BME280;10604;51.976;7.594;2023-03-03T06:30:34;101735.44;;;1.87;95.07
20889;BME280;10604;51.976;7.594;2023-03-03T06:32:59;101733.66;;;1.86;95.26
20889;BME280;10604;51.976;7.594;2023-03-03T06:35:25;101737.22;;;1.90;95.42
20889;BME280;10604;51.976;7.594;2023-03-03T06:37:50;101741.59;;;1.91;94.92
20889;BME280;10604;51.976;7.594;2023-03-03T06:40:16;101749.47;;;1.95;95.03
20889;BME280;10604;51.976;7.594;2023-03-03T06:42:41;101744.41;;;2.02;94.52
20889;BME280;10604;51.976;7.594;2023-03-03T06:45:07;101754.03;;;2.06;94.49
20889;BME280;10604;51.976;7.594;2023-03-03T06:47:33;101753.06;;;2.01;94.47
20889;BME280;10604;51.976;7.594;2023-03-03T06:49:58;101763.28;;;1.91;94.43
20889;BME280;10604;51.976;7.594;2023-03-03T06:52:25;101765.09;;;1.95;94.85
20889;BME280;10604;51.976;7.594;2023-03-03T06:54:56;101766.00;;;1.99;95.05
20889;BME280;10604;51.976;7.594;2023-03-03T06:57:28;101766.72;;;1.90;94.86
20889;BME280;10604;51.976;7.594;2023-03-03T06:59:56;101773.69;;;1.91;95.10
20889;BME280;10604;51.976;7.594;2023-03-03T07:02:22;101775.41;;;1.92;94.78
20889;BME280;10604;51.976;7.594;2023-03-03T07:04:48;101779.34;;;1.74;95.26
20889;BME280;10604;51.976;7.594;2023-03-03T07:07:20;101779.66;;;1.87;95.10
20889;BME280;10604;51.976;7.594;2023-03-03T07:09:48;101787.44;;;1.87;95.23
20889;BME280;10604;51.976;7.594;2023-03-03T07:12:18;101787.22;;;1.78;95.43
20889;BME280;10604;51.976;7.594;2023-03-03T07:14:46;101790.53;;;1.71;95.34
20889;BME280;10604;51.976;7.594;2023-03-03T07:17:18;101790.75;;;1.80;95.49
20889;BME280;10604;51.976;7.594;2023-03-03T07:19:44;101783.88;;;1.82;95.06
20889;BME280;10604;51.976;7.594;2023-03-03T07:22:16;101790.88;;;1.86;94.86
20889;BME280;10604;51.976;7.594;2023-03-03T07:24:44;101791.00;;;1.92;94.78
20889;BME280;10604;51.976;7.594;2023-03-03T07:27:19;101787.66;;;1.96;94.83
20889;BME280;10604;51.976;7.594;2023-03-03T07:29:48;101794.63;;;1.98;94.35
20889;BME280;10604;51.976;7.594;2023-03-03T07:32:24;101802.31;;;1.93;94.00
20889;BME280;10604;51.976;7.594;2023-03-03T07:34:52;101799.03;;;2.02;93.93
20889;BME280;10604;51.976;7.594;2023-03-03T07:37:35;101807.59;;;1.96;94.07
20889;BME280;10604;51.976;7.594;2023-03-03T07:42:53;101820.69;;;2.01;93.87
20889;BME280;10604;51.976;7.594;2023-03-03T07:45:26;101818.03;;;1.98;93.67
20889;BME280;10604;51.976;7.594;2023-03-03T07:48:03;101816.44;;;2.04;93.01
20889;BME280;10604;51.976;7.594;2023-03-03T07:50:33;101820.75;;;2.04;93.13
20889;BME280;10604;51.976;7.594;2023-03-03T07:52:59;101824.41;;;2.12;92.79
20889;BME280;10604;51.976;7.594;2023-03-03T07:55:38;101826.34;;;2.22;91.99
20889;BME280;10604;51.976;7.594;2023-03-03T08:03:20;101836.94;;;2.29;91.15
20889;BME280;10604;51.976;7.594;2023-03-03T08:05:48;101828.25;;;2.29;91.43
20889;BME280;10604;51.976;7.594;2023-03-03T08:10:52;101834.53;;;2.39;91.74
20889;BME280;10604;51.976;7.594;2023-03-03T08:13:23;101841.75;;;2.52;91.32
20889;BME280;10604;51.976;7.594;2023-03-03T08:18:36;101843.69;;;2.63;90.85
20889;BME280;10604;51.976;7.594;2023-03-03T08:21:14;101846.97;;;2.53;90.62
20889;BME280;10604;51.976;7.594;2023-03-03T08:23:40;101846.25;;;2.60;91.07
20889;BME280;10604;51.976;7.594;2023-03-03T08:26:06;101852.66;;;2.76;90.87
20889;BME280;10604;51.976;7.594;2023-03-03T08:28:32;101851.69;;;2.72;89.60
20889;BME280;10604;51.976;7.594;2023-03-03T08:30:58;101852.00;;;2.88;89.57
20889;BME280;10604;51.976;7.594;2023-03-03T08:33:23;101845.16;;;2.93;88.89
20889;BME280;10604;51.976;7.594;2023-03-03T08:35:49;101846.91;;;2.94;88.58
20889;BME280;10604;51.976;7.594;2023-03-03T08:38:17;101847.94;;;3.02;88.31
20889;BME280;10604;51.976;7.594;2023-03-03T08:40:43;101841.00;;;3.02;88.33
20889;BME280;10604;51.976;7.594;2023-03-03T08:43:08;101839.28;;;3.03;88.68
20889;BME280;10604;51.976;7.594;2023-03-03T08:45:35;101839.03;;;2.89;88.64
20889;BME280;10604;51.976;7.594;2023-03-03T08:48:01;101842.88;;;3.09;88.22
20889;BME280;10604;51.976;7.594;2023-03-03T08:50:27;101839.03;;;2.89;88.48
20889;BME280;10604;51.976;7.594;2023-03-03T08:52:54;101840.88;;;2.96;88.32
20889;BME280;10604;51.976;7.594;2023-03-03T08:55:19;101843.47;;;2.95;88.13
20889;BME280;10604;51.976;7.594;2023-03-03T08:57:44;101841.81;;;3.00;87.65
20889;BME280;10604;51.976;7.594;2023-03-03T09:00:13;101841.88;;;3.03;86.82
20889;BME280;10604;51.976;7.594;2023-03-03T09:02:39;101845.22;;;2.96;86.85
20889;BME280;10604;51.976;7.594;2023-03-03T09:05:05;101845.03;;;2.87;87.55
20889;BME280;10604;51.976;7.594;2023-03-03T09:07:30;101851.50;;;3.07;87.14
20889;BME280;10604;51.976;7.594;2023-03-03T09:09:56;101857.94;;;3.27;87.11
20889;BME280;10604;51.976;7.594;2023-03-03T09:12:28;101859.34;;;3.58;86.43
20889;BME280;10604;51.976;7.594;2023-03-03T09:14:57;101858.88;;;3.82;85.36
20889;BME280;10604;51.976;7.594;2023-03-03T09:17:34;101863.31;;;3.87;83.95
20889;BME280;10604;51.976;7.594;2023-03-03T09:20:16;101862.50;;;3.90;84.09
20889;BME280;10604;51.976;7.594;2023-03-03T09:22:46;101864.50;;;4.09;83.39
20889;BME280;10604;51.976;7.594;2023-03-03T09:25:35;101858.63;;;4.24;82.12
20889;BME280;10604;51.976;7.594;2023-03-03T09:28:02;101856.03;;;4.24;81.91
20889;BME280;10604;51.976;7.594;2023-03-03T09:33:01;101861.13;;;4.16;81.61
20889;BME280;10604;51.976;7.594;2023-03-03T09:38:01;101861.50;;;4.44;81.41
20889;BME280;10604;51.976;7.594;2023-03-03T09:49:32;101870.38;;;4.58;79.15
20889;BME280;10604;51.976;7.594;2023-03-03T09:57:24;101865.56;;;4.91;79.09
20889;BME280;10604;51.976;7.594;2023-03-03T10:02:42;101865.88;;;5.20;78.16
20889;BME280;10604;51.976;7.594;2023-03-03T10:05:26;101878.47;;;5.62;77.03
20889;BME280;10604;51.976;7.594;2023-03-03T10:10:49;101882.03;;;5.70;74.14
20889;BME280;10604;51.976;7.594;2023-03-03T10:13:42;101883.19;;;6.04;73.45
20889;BME280;10604;51.976;7.594;2023-03-03T10:25:00;101888.44;;;6.04;74.82
20889;BME280;10604;51.976;7.594;2023-03-03T10:27:48;101889.56;;;6.47;72.25
20889;BME280;10604;51.976;7.594;2023-03-03T10:33:09;101889.41;;;6.20;73.33
20889;BME280;10604;51.976;7.594;2023-03-03T10:35:54;101894.66;;;6.20;73.30
20889;BME280;10604;51.976;7.594;2023-03-03T10:41:18;101894.88;;;6.53;73.34
20889;BME280;10604;51.976;7.594;2023-03-03T10:49:39;101893.94;;;6.42;72.26
20889;BME280;10604;51.976;7.594;2023-03-03T10:59:58;101889.66;;;6.62;70.59
20889;BME280;10604;51.976;7.594;2023-03-03T11:08:00;101894.97;;;6.78;71.65
20889;BME280;10604;51.976;7.594;2023-03-03T11:15:53;101892.38;;;6.84;71.01
20889;BME280;10604;51.976;7.594;2023-03-03T11:27:05;101882.72;;;6.67;72.14
20889;BME280;10604;51.976;7.594;2023-03-03T11:35:03;101872.38;;;7.16;69.37
20889;BME280;10604;51.976;7.594;2023-03-03T11:37:43;101872.38;;;7.27;69.53
20889;BME280;10604;51.976;7.594;2023-03-03T11:40:26;101873.31;;;7.59;68.17
20889;BME280;10604;51.976;7.594;2023-03-03T11:45:41;101874.16;;;8.23;66.78
20889;BME280;10604;51.976;7.594;2023-03-03T11:55:14;101854.75;;;8.73;65.61
20889;BME280;10604;51.976;7.594;2023-03-03T11:57:31;101851.16;;;8.85;64.75
20889;BME280;10604;51.976;7.594;2023-03-03T12:03:20;101851.16;;;8.88;64.09
20889;BME280;10604;51.976;7.594;2023-03-03T12:05:54;101841.56;;;8.78;64.02
20889;BME280;10604;51.976;7.594;2023-03-03T12:11:09;101844.38;;;8.03;66.48
20889;BME280;10604;51.976;7.594;2023-03-03T12:16:40;101833.84;;;8.37;64.75
20889;BME280;10604;51.976;7.594;2023-03-03T12:19:26;101845.19;;;8.40;64.71
20889;BME280;10604;51.976;7.594;2023-03-03T12:30:27;101833.66;;;8.79;64.39
20889;BME280;10604;51.976;7.594;2023-03-03T12:41:05;101820.91;;;9.51;59.60
20889;BME280;10604;51.976;7.594;2023-03-03T12:43:37;101811.97;;;9.67;58.97
20889;BME280;10604;51.976;7.594;2023-03-03T12:46:24;101809.16;;;9.87;59.68
20889;BME280;10604;51.976;7.594;2023-03-03T12:48:54;101810.66;;;10.12;59.46
20889;BME280;10604;51.976;7.594;2023-03-03T12:57:03;101813.22;;;10.20;55.78
20889;BME280;10604;51.976;7.594;2023-03-03T13:06:06;101806.75;;;9.64;58.22
20889;BME280;10604;51.976;7.594;2023-03-03T13:08:23;101807.00;;;9.31;58.79
20889;BME280;10604;51.976;7.594;2023-03-03T13:13:45;101807.28;;;8.91;60.94
20889;BME280;10604;51.976;7.594;2023-03-03T13:16:25;101803.94;;;8.62;62.11
20889;BME280;10604;51.976;7.594;2023-03-03T13:18:57;101805.22;;;9.36;60.54
20889;BME280;10604;51.976;7.594;2023-03-03T13:24:01;101793.72;;;10.36;56.28
20889;BME280;10604;51.976;7.594;2023-03-03T13:31:54;101790.22;;;10.34;57.24
20889;BME280;10604;51.976;7.594;2023-03-03T13:34:24;101790.91;;;10.51;55.87
20889;BME280;10604;51.976;7.594;2023-03-03T13:37:02;101781.75;;;10.02;57.03
20889;BME280;10604;51.976;7.594;2023-03-03T13:39:33;101785.34;;;9.95;58.14
20889;BME280;10604;51.976;7.594;2023-03-03T13:42:12;101788.03;;;9.93;57.65
20889;BME280;10604;51.976;7.594;2023-03-03T13:44:43;101785.31;;;10.01;58.13
20889;BME280;10604;51.976;7.594;2023-03-03T13:47:35;101787.06;;;9.99;57.64
20889;BME280;10604;51.976;7.594;2023-03-03T13:50:40;101778.50;;;9.77;56.81
20889;BME280;10604;51.976;7.594;2023-03-03T13:58:51;101775.34;;;9.40;59.12
20889;BME280;10604;51.976;7.594;2023-03-03T14:12:17;101763.88;;;7.87;64.73
20889;BME280;10604;51.976;7.594;2023-03-03T14:17:59;101753.41;;;7.69;66.87
20889;BME280;10604;51.976;7.594;2023-03-03T14:20:29;101755.16;;;7.73;66.07
20889;BME280;10604;51.976;7.594;2023-03-03T14:23:00;101760.41;;;7.64;67.12
20889;BME280;10604;51.976;7.594;2023-03-03T14:26:06;101748.97;;;7.91;67.67
20889;BME280;10604;51.976;7.594;2023-03-03T14:31:14;101759.53;;;7.63;68.31
20889;BME280;10604;51.976;7.594;2023-03-03T14:33:45;101741.19;;;7.56;68.22
20889;BME280;10604;51.976;7.594;2023-03-03T14:36:13;101749.94;;;7.52;69.79
20889;BME280;10604;51.976;7.594;2023-03-03T14:38:44;101742.06;;;7.55;69.09
20889;BME280;10604;51.976;7.594;2023-03-03T14:43:37;101742.91;;;7.63;68.76
20889;BME280;10604;51.976;7.594;2023-03-03T14:48:54;101741.19;;;7.25;69.47
20889;BME280;10604;51.976;7.594;2023-03-03T14:51:40;101743.81;;;7.33;71.07
20889;BME280;10604;51.976;7.594;2023-03-03T14:54:13;101739.44;;;7.12;70.30
20889;BME280;10604;51.976;7.594;2023-03-03T14:59:22;101743.84;;;7.22;70.83
20889;BME280;10604;51.976;7.594;2023-03-03T15:04:43;101742.09;;;7.17;70.74
20889;BME280;10604;51.976;7.594;2023-03-03T15:07:32;101735.09;;;7.23;70.45
20889;BME280;10604;51.976;7.594;2023-03-03T15:09:59;101732.47;;;7.23;70.84
20889;BME280;10604;51.976;7.594;2023-03-03T15:17:40;101732.47;;;7.02;71.25
20889;BME280;10604;51.976;7.594;2023-03-03T15:23:02;101728.94;;;7.39;70.25
20889;BME280;10604;51.976;7.594;2023-03-03T15:36:51;101709.69;;;7.59;68.88
20889;BME280;10604;51.976;7.594;2023-03-03T15:39:30;101693.94;;;7.46;69.62
20889;BME280;10604;51.976;7.594;2023-03-03T15:42:13;101700.97;;;7.32;69.82
20889;BME280;10604;51.976;7.594;2023-03-03T15:50:27;101694.00;;;6.80;72.30
20889;BME280;10604;51.976;7.594;2023-03-03T15:58:31;101686.13;;;6.87;71.86
20889;BME280;10604;51.976;7.594;2023-03-03T16:01:37;101686.09;;;6.75;71.91
20889;BME280;10604;51.976;7.594;2023-03-03T16:04:14;101683.44;;;6.43;74.17
20889;BME280;10604;51.976;7.594;2023-03-03T16:07:08;101680.84;;;6.45;73.83
20889;BME280;10604;51.976;7.594;2023-03-03T16:12:20;101685.13;;;6.17;74.90
20889;BME280;10604;51.976;7.594;2023-03-03T16:26:05;101679.84;;;6.05;76.06
20889;BME280;10604;51.976;7.594;2023-03-03T16:31:20;101683.44;;;6.31;74.67
20889;BME280;10604;51.976;7.594;2023-03-03T16:37:09;101685.91;;;5.98;76.18
20889;BME280;10604;51.976;7.594;2023-03-03T16:45:26;101683.22;;;5.82;77.37
20889;BME280;10604;51.976;7.594;2023-03-03T16:55:57;101686.66;;;5.72;78.06
20889;BME280;10604;51.976;7.594;2023-03-03T17:01:30;101686.50;;;5.45;78.94
20889;BME280;10604;51.976;7.594;2023-03-03T17:04:01;101679.47;;;5.41;79.70
20889;BME280;10604;51.976;7.594;2023-03-03T17:12:24;101687.22;;;5.23;80.87
20889;BME280;10604;51.976;7.594;2023-03-03T17:15:38;101691.66;;;5.33;81.36
20889;BME280;10604;51.976;7.594;2023-03-03T17:20:57;101684.88;;;5.65;80.43
20889;BME280;10604;51.976;7.594;2023-03-03T17:23:39;101692.75;;;5.73;79.58
20889;BME280;10604;51.976;7.594;2023-03-03T17:37:52;101705.63;;;5.38;81.25
20889;BME280;10604;51.976;7.594;2023-03-03T17:45:24;101702.34;;;5.72;80.51
20889;BME280;10604;51.976;7.594;2023-03-03T18:01:23;101721.50;;;5.65;80.39
20889;BME280;10604;51.976;7.594;2023-03-03T18:06:46;101724.00;;;5.44;80.56
20889;BME280;10604;51.976;7.594;2023-03-03T18:12:17;101731.78;;;5.38;81.38
20889;BME280;10604;51.976;7.594;2023-03-03T18:17:33;101727.59;;;5.63;80.57
20889;BME280;10604;51.976;7.594;2023-03-03T18:20:19;101730.16;;;5.52;80.77